Time;durP1;ratioP1;P1;durP2;ratioP2;P2;SDS_P1;SDS_P2;PMS_P1;PMS_P2;Temp;Humidity;BMP_temperature;BMP_pressure;BME280_temperature;BME280_humidity;BME280_pressure;Samples;Min_cycle;Max_cycle;Signal;HPM_P1;HPM_P2
2022/08/17 00:00:10;;;;;;;74.27;55.20;;;;;;;18.97;100.00;101083.19;5031936;28;20458;-46
2022/08/17 00:03:01;;;;;;;72.83;55.60;;;;;;;18.93;100.00;101081.22;5031090;28;20984;-44
2022/08/17 00:05:33;;;;;;;54.43;46.30;;;;;;;18.90;100.00;101081.72;5032057;28;20438;-45
2022/08/17 00:08:01;;;;;;;57.40;46.87;;;;;;;18.88;100.00;101081.13;5031969;28;20435;-45
2022/08/17 00:10:28;;;;;;;63.63;52.87;;;;;;;18.86;100.00;101086.78;5031764;28;20423;-48
2022/08/17 00:12:59;;;;;;;71.97;56.73;;;;;;;18.83;100.00;101098.06;5031188;28;20553;-47
2022/08/17 00:15:27;;;;;;;67.50;57.10;;;;;;;18.78;100.00;101095.28;5031858;28;20431;-46
2022/08/17 00:17:54;;;;;;;72.60;56.00;;;;;;;18.74;100.00;101094.94;5031791;28;20435;-46
2022/08/17 00:20:22;;;;;;;56.30;47.87;;;;;;;18.71;100.00;101090.00;5031776;28;20437;-46
2022/08/17 00:23:07;;;;;;;56.83;50.67;;;;;;;18.68;100.00;101101.31;5031193;28;20470;-44
2022/08/17 00:25:35;;;;;;;58.70;51.57;;;;;;;18.65;100.00;101090.97;5032075;28;20437;-47
2022/08/17 00:28:03;;;;;;;60.27;53.10;;;;;;;18.60;100.00;101099.00;5031639;28;20446;-44
2022/08/17 00:30:31;;;;;;;55.73;49.70;;;;;;;18.54;100.00;101097.25;5031804;28;20432;-44
2022/08/17 00:33:22;;;;;;;67.37;55.47;;;;;;;18.48;100.00;101092.78;5030850;28;20475;-46
2022/08/17 00:35:50;;;;;;;65.43;56.93;;;;;;;18.43;100.00;101097.25;5032120;28;20431;-47
2022/08/17 00:38:20;;;;;;;65.33;56.27;;;;;;;18.38;100.00;101097.13;5031528;28;20440;-46
2022/08/17 00:40:50;;;;;;;52.33;46.40;;;;;;;18.33;100.00;101097.88;5031603;28;20792;-44
2022/08/17 00:43:28;;;;;;;62.13;55.33;;;;;;;18.28;100.00;101103.16;5031084;28;20535;-45
2022/08/17 00:45:57;;;;;;;57.50;50.80;;;;;;;18.22;100.00;101101.41;5031535;28;20432;-44
2022/08/17 00:48:24;;;;;;;63.00;56.10;;;;;;;18.16;100.00;101111.28;5031673;28;20455;-44
2022/08/17 00:51:01;;;;;;;58.23;51.90;;;;;;;18.14;100.00;101109.88;5031061;28;20453;-44
2022/08/17 00:53:32;;;;;;;51.40;45.90;;;;;;;18.14;100.00;101116.09;5031283;28;20501;-45
2022/08/17 00:56:03;;;;;;;49.10;43.83;;;;;;;18.21;100.00;101099.78;5031529;28;20436;-45
2022/08/17 00:58:32;;;;;;;54.97;48.13;;;;;;;18.28;100.00;101102.34;5031379;28;20432;-43
2022/08/17 01:01:04;;;;;;;69.23;54.30;;;;;;;18.32;100.00;101103.50;5030930;28;20814;-43
2022/08/17 01:03:33;;;;;;;65.30;53.77;;;;;;;18.36;100.00;101110.06;5031285;28;20428;-45
2022/08/17 01:06:03;;;;;;;65.30;54.43;;;;;;;18.40;100.00;101108.53;5031504;28;20436;-45
2022/08/17 01:08:33;;;;;;;79.90;62.27;;;;;;;18.43;100.00;101099.97;5031360;28;20432;-44
2022/08/17 01:11:01;;;;;;;70.57;57.30;;;;;;;18.45;100.00;101100.53;5030863;28;20457;-45
2022/08/17 01:13:32;;;;;;;68.77;53.33;;;;;;;18.47;100.00;101098.41;5031202;28;21013;-43
2022/08/17 01:16:15;;;;;;;68.77;57.53;;;;;;;18.46;100.00;101102.97;5031311;28;20794;-46
2022/08/17 01:18:45;;;;;;;70.63;56.50;;;;;;;18.47;100.00;101104.63;5031258;28;20490;-44
2022/08/17 01:21:20;;;;;;;93.47;64.77;;;;;;;18.46;100.00;101105.69;5030716;28;20559;-47
2022/08/17 01:23:49;;;;;;;72.97;53.20;;;;;;;18.46;100.00;101111.09;5031165;28;20805;-47
2022/08/17 01:26:17;;;;;;;68.40;55.77;;;;;;;18.45;100.00;101109.47;5031301;28;20428;-44
2022/08/17 01:28:45;;;;;;;63.10;51.00;;;;;;;18.45;100.00;101111.34;5034382;28;20434;-45
2022/08/17 01:31:23;;;;;;;55.53;47.67;;;;;;;18.47;100.00;101103.81;5034330;28;20463;-44
2022/08/17 01:33:52;;;;;;;62.53;49.93;;;;;;;18.46;100.00;101102.16;5034319;28;20467;-46
2022/08/17 01:36:19;;;;;;;49.27;43.43;;;;;;;18.48;100.00;101114.38;5034939;28;20435;-44
2022/08/17 01:38:48;;;;;;;44.67;38.00;;;;;;;18.52;100.00;101107.44;5034749;28;20457;-44
2022/08/17 01:41:16;;;;;;;46.93;39.67;;;;;;;18.56;100.00;101100.53;5033949;28;20459;-47
2022/08/17 01:43:47;;;;;;;57.63;47.63;;;;;;;18.56;100.00;101110.50;5034316;28;20432;-44
2022/08/17 01:46:19;;;;;;;45.70;40.97;;;;;;;18.55;100.00;101112.38;5034482;28;20450;-50
2022/08/17 01:48:49;;;;;;;43.50;38.80;;;;;;;18.55;100.00;101120.47;5034873;28;20424;-44
2022/08/17 01:51:17;;;;;;;43.17;38.73;;;;;;;18.57;100.00;101120.25;5034052;28;20542;-45
2022/08/17 01:53:50;;;;;;;55.77;42.97;;;;;;;18.55;100.00;101119.66;5034067;28;20564;-48
2022/08/17 01:56:22;;;;;;;48.97;42.80;;;;;;;18.53;100.00;101114.50;5034344;28;20434;-44
2022/08/17 01:58:50;;;;;;;54.80;44.43;;;;;;;18.53;100.00;101110.97;5034309;28;20439;-48
2022/08/17 02:01:21;;;;;;;68.90;47.47;;;;;;;18.51;100.00;101124.75;5033733;28;20478;-47
2022/08/17 02:03:48;;;;;;;92.17;47.60;;;;;;;18.46;100.00;101112.97;5034092;28;20427;-43
2022/08/17 02:06:29;;;;;;;79.00;45.40;;;;;;;18.42;100.00;101118.03;5034324;28;20443;-46
2022/08/17 02:08:58;;;;;;;73.07;47.60;;;;;;;18.40;100.00;101124.75;5034091;28;20526;-46
2022/08/17 02:11:32;;;;;;;59.77;45.07;;;;;;;18.40;100.00;101136.34;5033712;28;20513;-46
2022/08/17 02:14:00;;;;;;;47.03;39.37;;;;;;;18.38;100.00;101124.13;5033909;28;20511;-47
2022/08/17 02:16:30;;;;;;;66.50;44.90;;;;;;;18.36;100.00;101116.28;5034131;28;20431;-44
2022/08/17 02:19:05;;;;;;;48.57;42.00;;;;;;;18.32;100.00;101125.91;5034036;28;20428;-44
2022/08/17 02:21:33;;;;;;;45.90;41.20;;;;;;;18.31;100.00;101126.97;5033313;28;20497;-47
2022/08/17 02:24:02;;;;;;;48.67;41.67;;;;;;;18.28;100.00;101122.03;5033997;28;20434;-44
2022/08/17 02:26:30;;;;;;;49.87;43.37;;;;;;;18.25;100.00;101120.63;5034128;28;20436;-46
2022/08/17 02:28:58;;;;;;;136.50;56.93;;;;;;;18.22;100.00;101117.59;5033584;28;20434;-48
2022/08/17 02:31:25;;;;;;;150.23;59.63;;;;;;;18.17;100.00;101123.72;5033121;28;20834;-43
2022/08/17 02:33:53;;;;;;;61.87;43.33;;;;;;;18.16;100.00;101124.75;5033421;28;20506;-43
2022/08/17 02:36:31;;;;;;;114.90;53.73;;;;;;;18.08;100.00;101125.13;5033561;28;20436;-44
2022/08/17 02:39:00;;;;;;;97.10;49.13;;;;;;;18.06;100.00;101119.16;5032669;28;20486;-45
2022/08/17 02:41:29;;;;;;;81.83;49.20;;;;;;;18.01;100.00;101126.34;5033019;28;20456;-44
2022/08/17 02:43:57;;;;;;;87.23;46.90;;;;;;;17.96;100.00;101124.31;5033354;28;20824;-44
2022/08/17 02:46:25;;;;;;;75.10;45.30;;;;;;;17.94;100.00;101129.16;5034318;28;20435;-44
2022/08/17 02:48:53;;;;;;;68.60;45.87;;;;;;;17.89;100.00;101136.31;5034290;28;20495;-43
2022/08/17 02:51:20;;;;;;;114.70;52.30;;;;;;;17.87;100.00;101123.03;5033957;28;20474;-42
2022/08/17 02:53:48;;;;;;;126.13;53.97;;;;;;;17.84;100.00;101126.19;5033654;28;20479;-43
2022/08/17 02:56:16;;;;;;;62.00;42.90;;;;;;;17.83;100.00;101126.44;5034287;28;20454;-44
2022/08/17 02:58:45;;;;;;;92.50;47.47;;;;;;;17.83;100.00;101124.56;5033924;28;20432;-42
2022/08/17 03:01:13;;;;;;;75.83;46.57;;;;;;;17.81;100.00;101133.94;5033206;28;20463;-43
2022/08/17 03:03:40;;;;;;;88.00;46.77;;;;;;;17.80;100.00;101126.91;5034319;28;20432;-44
2022/08/17 03:06:09;;;;;;;75.33;46.30;;;;;;;17.76;100.00;101126.56;5034693;28;20431;-42
2022/08/17 03:08:37;;;;;;;93.47;49.67;;;;;;;17.72;100.00;101128.06;5034433;28;20442;-44
2022/08/17 03:11:04;;;;;;;88.20;47.23;;;;;;;17.69;100.00;101132.06;5031637;28;20452;-42
2022/08/17 03:13:32;;;;;;;159.90;53.90;;;;;;;17.65;100.00;101125.50;5034118;28;20476;-43
2022/08/17 03:16:01;;;;;;;66.97;49.93;;;;;;;17.61;100.00;101121.63;5034202;28;20929;-43
2022/08/17 03:18:29;;;;;;;63.27;45.90;;;;;;;17.57;100.00;101125.84;5034683;28;20477;-46
2022/08/17 03:20:59;;;;;;;75.80;47.53;;;;;;;17.54;100.00;101120.06;5034435;28;20536;-43
2022/08/17 03:23:28;;;;;;;81.73;48.73;;;;;;;17.49;100.00;101128.03;5033532;28;20831;-42
2022/08/17 03:25:57;;;;;;;53.87;43.20;;;;;;;17.46;100.00;101123.94;5033556;28;20492;-42
2022/08/17 03:28:27;;;;;;;74.30;48.47;;;;;;;17.43;100.00;101116.31;5032842;28;20918;-42
2022/08/17 03:30:54;;;;;;;77.30;47.00;;;;;;;17.40;100.00;101118.63;5034003;28;20456;-44
2022/08/17 03:33:23;;;;;;;58.20;42.63;;;;;;;17.39;100.00;101119.69;5033135;28;20524;-42
2022/08/17 03:35:51;;;;;;;93.23;50.10;;;;;;;17.35;100.00;101113.13;5033472;28;20443;-43
2022/08/17 03:38:19;;;;;;;57.50;44.57;;;;;;;17.34;100.00;101114.16;5033740;28;20436;-42
2022/08/17 03:40:48;;;;;;;44.00;39.43;;;;;;;17.34;100.00;101115.00;5033257;28;20428;-42
2022/08/17 03:43:27;;;;;;;42.63;37.97;;;;;;;17.36;100.00;101120.13;5033110;28;20463;-41
2022/08/17 03:57:18;;;;;;;46.33;40.30;;;;;;;17.47;100.00;101122.84;5033553;28;20431;-42
2022/08/17 03:59:47;;;;;;;50.00;41.83;;;;;;;17.54;100.00;101130.84;5033548;28;20982;-42
2022/08/17 04:02:19;;;;;;;53.60;44.43;;;;;;;17.57;100.00;101128.53;5032426;28;20466;-42
2022/08/17 04:04:49;;;;;;;47.50;40.30;;;;;;;17.58;100.00;101132.88;5033444;28;20822;-44
2022/08/17 04:07:18;;;;;;;82.47;47.23;;;;;;;17.58;100.00;101135.59;5033595;28;20447;-45
2022/08/17 04:09:46;;;;;;;52.50;41.93;;;;;;;17.61;100.00;101139.69;5033156;28;20435;-45
2022/08/17 04:12:15;;;;;;;58.03;45.27;;;;;;;17.60;100.00;101155.03;5032163;28;20486;-43
2022/08/17 04:14:42;;;;;;;49.70;42.40;;;;;;;17.64;100.00;101150.00;5033451;28;20472;-42
2022/08/17 04:17:21;;;;;;;46.40;37.60;;;;;;;17.66;100.00;101156.81;5033403;28;20485;-44
2022/08/17 04:19:50;;;;;;;57.97;42.63;;;;;;;17.69;100.00;101158.22;5033104;28;20943;-42
2022/08/17 04:22:18;;;;;;;53.10;45.27;;;;;;;17.69;100.00;101155.50;5032204;28;20464;-42
2022/08/17 04:25:01;;;;;;;49.60;40.17;;;;;;;17.73;100.00;101159.41;5033362;28;20435;-42
2022/08/17 04:27:28;;;;;;;52.77;40.97;;;;;;;17.75;100.00;101154.59;5032751;28;20435;-45
2022/08/17 04:29:57;;;;;;;83.03;46.50;;;;;;;17.77;100.00;101157.84;5031641;28;20435;-46
2022/08/17 04:32:24;;;;;;;93.67;47.77;;;;;;;17.80;100.00;101162.00;5031183;28;20478;-45
2022/08/17 04:35:18;;;;;;;89.40;48.63;;;;;;;17.85;100.00;101164.81;5031479;28;20468;-47
2022/08/17 04:37:46;;;;;;;176.77;50.60;;;;;;;17.88;100.00;101167.03;5031800;28;20438;-47
2022/08/17 04:43:04;;;;;;;142.00;43.93;;;;;;;17.94;100.00;101172.31;5030913;28;21010;-44
2022/08/17 04:45:32;;;;;;;122.77;43.03;;;;;;;17.96;100.00;101154.00;5031790;28;20432;-44
2022/08/17 04:48:00;;;;;;;241.07;53.20;;;;;;;18.00;100.00;101162.47;5031850;28;20530;-46
2022/08/17 04:50:29;;;;;;;210.33;50.90;;;;;;;18.05;100.00;101159.88;5031885;28;20430;-46
2022/08/17 04:52:56;;;;;;;181.97;45.80;;;;;;;18.08;100.00;101157.53;5030684;28;20466;-45
2022/08/17 04:55:25;;;;;;;154.70;46.03;;;;;;;18.11;100.00;101164.31;5031446;28;21087;-46
2022/08/17 04:57:52;;;;;;;128.03;43.93;;;;;;;18.16;100.00;101167.13;5031419;28;20435;-45
2022/08/17 05:00:21;;;;;;;272.30;60.00;;;;;;;18.19;100.00;101166.66;5031647;28;20438;-50
2022/08/17 05:02:50;;;;;;;165.30;51.53;;;;;;;18.24;100.00;101174.88;5032398;28;20475;-45
2022/08/17 05:05:20;;;;;;;228.67;57.53;;;;;;;18.31;100.00;101180.16;5035306;28;20430;-45
2022/08/17 05:07:51;;;;;;;108.43;42.37;;;;;;;18.39;100.00;101185.19;5035333;28;20439;-44
2022/08/17 05:10:19;;;;;;;72.37;41.67;;;;;;;18.46;100.00;101169.66;5035241;28;20833;-45
2022/08/17 05:12:47;;;;;;;58.87;39.70;;;;;;;18.51;100.00;101181.47;5034229;28;20455;-44
2022/08/17 05:15:15;;;;;;;51.77;36.63;;;;;;;18.56;100.00;101180.72;5035227;28;20475;-44
2022/08/17 05:17:43;;;;;;;62.80;39.03;;;;;;;18.64;100.00;101177.66;5035201;28;20936;-44
2022/08/17 05:20:11;;;;;;;63.87;37.40;;;;;;;18.70;100.00;101184.78;5035096;28;20809;-43
2022/08/17 05:22:49;;;;;;;90.23;43.67;;;;;;;18.79;100.00;101191.47;5034314;28;20472;-45
2022/08/17 05:25:22;;;;;;;71.17;39.37;;;;;;;18.96;100.00;101199.66;5034907;28;20917;-45
2022/08/17 05:27:53;;;;;;;56.47;40.80;;;;;;;19.03;100.00;101193.03;5034967;28;20805;-44
2022/08/17 05:30:21;;;;;;;57.77;40.77;;;;;;;19.18;100.00;101190.63;5035011;28;20518;-44
2022/08/17 05:32:53;;;;;;;50.50;38.97;;;;;;;19.35;100.00;101198.78;5033939;28;20460;-47
2022/08/17 05:35:23;;;;;;;39.87;32.50;;;;;;;19.53;100.00;101200.47;5034609;28;20479;-46
2022/08/17 05:37:52;;;;;;;52.83;37.63;;;;;;;19.62;100.00;101196.31;5034906;28;20435;-49
2022/08/17 05:40:24;;;;;;;80.43;40.90;;;;;;;19.70;100.00;101198.59;5034889;28;20522;-44
2022/08/17 05:43:04;;;;;;;114.10;42.90;;;;;;;19.77;100.00;101201.97;5033890;28;20463;-45
2022/08/17 05:45:32;;;;;;;70.90;39.13;;;;;;;19.87;100.00;101200.22;5034688;28;20427;-47
2022/08/17 05:48:20;;;;;;;39.60;30.93;;;;;;;19.98;100.00;101198.50;5034662;28;20466;-43
2022/08/17 05:51:15;;;;;;;88.23;32.90;;;;;;;20.05;100.00;101201.03;5034106;28;20451;-44
2022/08/17 05:53:52;;;;;;;201.97;48.43;;;;;;;20.07;100.00;101202.44;5034419;28;20411;-48
2022/08/17 05:56:32;;;;;;;49.77;25.50;;;;;;;20.12;100.00;101207.94;5034199;28;20494;-45
2022/08/17 05:59:09;;;;;;;88.77;28.50;;;;;;;20.06;100.00;101203.50;5034435;28;20621;-45
2022/08/17 06:01:46;;;;;;;113.60;27.50;;;;;;;20.02;100.00;101212.38;5033931;28;20550;-47
2022/08/17 06:04:18;;;;;;;111.60;31.57;;;;;;;19.89;100.00;101211.63;5034109;28;20798;-45
2022/08/17 06:06:55;;;;;;;86.20;26.43;;;;;;;19.84;100.00;101214.25;5034078;28;20530;-45
2022/08/17 06:09:38;;;;;;;56.90;22.80;;;;;;;19.76;100.00;101222.81;5034232;28;20915;-46
2022/08/17 06:12:23;;;;;;;97.60;28.00;;;;;;;19.69;100.00;101226.72;5033461;28;20700;-43
2022/08/17 06:15:03;;;;;;;91.40;28.37;;;;;;;19.65;100.00;101231.00;5033844;28;20908;-44
2022/08/17 06:17:31;;;;;;;50.13;25.17;;;;;;;19.62;100.00;101239.59;5034297;28;20435;-45
2022/08/17 06:20:03;;;;;;;31.13;24.53;;;;;;;19.66;100.00;101238.84;5033793;28;20442;-49
2022/08/17 06:22:34;;;;;;;43.93;25.50;;;;;;;19.64;100.00;101240.16;5033105;28;20993;-44
2022/08/17 06:25:12;;;;;;;37.00;24.30;;;;;;;19.75;100.00;101233.84;5034041;28;20438;-48
2022/08/17 06:27:43;;;;;;;35.80;25.63;;;;;;;19.84;100.00;101229.69;5033687;28;20520;-45
2022/08/17 06:30:13;;;;;;;23.40;21.20;;;;;;;19.97;100.00;101234.78;5033686;28;20434;-43
2022/08/17 06:32:44;;;;;;;25.90;22.67;;;;;;;20.16;100.00;101232.63;5032944;28;20460;-47
2022/08/17 06:35:15;;;;;;;26.33;23.53;;;;;;;20.21;100.00;101230.00;5033669;28;20479;-44
2022/08/17 06:38:03;;;;;;;24.70;21.30;;;;;;;20.36;100.00;101232.97;5033671;28;20444;-44
2022/08/17 06:41:00;;;;;;;26.27;23.83;;;;;;;20.54;100.00;101224.56;5033723;28;20427;-43
2022/08/17 06:43:43;;;;;;;26.53;23.87;;;;;;;20.72;100.00;101226.13;5032018;28;20448;-48
2022/08/17 06:46:21;;;;;;;26.53;22.47;;;;;;;20.86;100.00;101221.97;5033423;28;20424;-46
2022/08/17 06:48:59;;;;;;;29.60;25.10;;;;;;;21.05;100.00;101231.44;5033298;28;20431;-46
2022/08/17 06:51:32;;;;;;;29.93;24.73;;;;;;;21.14;100.00;101227.22;5032844;28;21003;-48
2022/08/17 06:54:07;;;;;;;38.30;25.83;;;;;;;21.25;100.00;101228.97;5033087;28;20431;-45
2022/08/17 06:56:41;;;;;;;32.00;26.17;;;;;;;21.57;100.00;101229.00;5033143;28;20605;-46
2022/08/17 06:59:25;;;;;;;40.13;28.23;;;;;;;21.99;100.00;101229.13;5033340;28;20427;-44
2022/08/17 07:02:05;;;;;;;29.00;25.90;;;;;;;22.13;98.55;101227.63;5032627;28;20550;-46
2022/08/17 07:04:35;;;;;;;31.93;28.13;;;;;;;22.25;97.63;101233.66;5033231;28;20432;-47
2022/08/17 07:09:51;;;;;;;34.90;28.43;;;;;;;22.53;94.74;101240.63;5033037;28;20427;-44
2022/08/17 07:12:25;;;;;;;33.73;26.87;;;;;;;22.54;94.21;101245.81;5032193;28;20475;-49
2022/08/17 07:14:59;;;;;;;34.50;29.10;;;;;;;22.43;93.38;101244.09;5033024;28;20438;-46
2022/08/17 07:17:27;;;;;;;31.77;27.70;;;;;;;22.52;94.33;101253.38;5032722;28;20476;-46
2022/08/17 07:20:16;;;;;;;34.40;27.57;;;;;;;22.56;94.01;101251.78;5032935;28;20431;-48
2022/08/17 07:22:54;;;;;;;34.20;30.50;;;;;;;22.56;94.21;101259.94;5032029;28;20464;-47
2022/08/17 07:25:29;;;;;;;40.07;34.60;;;;;;;22.57;93.62;101252.63;5032265;28;20432;-44
2022/08/17 07:28:01;;;;;;;37.27;33.07;;;;;;;22.59;93.07;101259.41;5032623;28;20448;-50
2022/08/17 07:30:36;;;;;;;38.07;33.07;;;;;;;22.57;93.38;101253.44;5032662;28;20427;-47
2022/08/17 07:33:18;;;;;;;40.90;35.27;;;;;;;22.61;93.46;101254.53;5032028;28;20487;-48
2022/08/17 07:35:48;;;;;;;44.70;35.57;;;;;;;22.65;93.27;101246.69;5032557;28;20476;-45
2022/08/17 07:38:17;;;;;;;38.50;34.23;;;;;;;22.75;94.76;101244.03;5032350;28;20439;-45
2022/08/17 07:41:01;;;;;;;44.90;39.17;;;;;;;22.68;92.99;101250.78;5032715;28;20538;-44
2022/08/17 07:43:33;;;;;;;47.03;38.70;;;;;;;22.69;94.22;101255.16;5032110;28;20472;-48
2022/08/17 07:49:23;;;;;;;42.23;35.93;;;;;;;23.03;93.72;101256.38;5032219;28;20438;-46
2022/08/17 07:52:00;;;;;;;44.30;39.73;;;;;;;23.12;90.99;101252.06;5031637;28;20995;-44
2022/08/17 07:54:48;;;;;;;41.90;37.50;;;;;;;23.35;92.08;101259.78;5032474;28;20435;-48
2022/08/17 07:57:32;;;;;;;40.43;36.13;;;;;;;23.86;91.43;101252.53;5031922;28;20475;-45
2022/08/17 08:00:20;;;;;;;40.17;35.87;;;;;;;24.24;88.22;101248.44;5031166;28;20432;-46
2022/08/17 08:03:04;;;;;;;39.27;35.13;;;;;;;24.42;83.63;101247.84;5031283;28;20525;-46
2022/08/17 08:05:33;;;;;;;39.30;35.10;;;;;;;24.58;81.30;101251.38;5031983;28;20432;-46
2022/08/17 08:08:26;;;;;;;38.10;34.07;;;;;;;25.07;80.40;101244.09;5032213;28;20450;-47
2022/08/17 08:11:04;;;;;;;36.80;32.80;;;;;;;25.39;80.64;101251.81;5031983;28;20455;-45
2022/08/17 08:13:33;;;;;;;38.47;33.50;;;;;;;25.07;77.82;101252.28;5031652;28;20458;-46
2022/08/17 08:16:29;;;;;;;38.50;34.27;;;;;;;25.14;76.99;101263.72;5031576;28;20454;-45
2022/08/17 08:18:59;;;;;;;35.30;31.50;;;;;;;25.33;78.17;101263.88;5007838;28;20441;-48
2022/08/17 08:21:36;;;;;;;38.27;34.17;;;;;;;25.46;74.73;101267.91;5031557;28;20841;-44
2022/08/17 08:24:19;;;;;;;37.40;33.37;;;;;;;25.90;77.26;101268.69;5031429;28;20435;-46
2022/08/17 08:26:56;;;;;;;35.30;31.70;;;;;;;26.01;75.06;101274.91;5031831;28;20435;-47
2022/08/17 08:29:31;;;;;;;39.43;35.30;;;;;;;26.19;72.06;101268.78;5031914;28;20428;-45
2022/08/17 08:32:06;;;;;;;38.13;34.33;;;;;;;26.25;75.39;101273.88;5031311;28;20463;-45
2022/08/17 08:34:44;;;;;;;39.87;33.57;;;;;;;26.39;71.56;101272.13;5031598;28;20430;-46
2022/08/17 08:37:38;;;;;;;36.63;32.90;;;;;;;25.82;70.53;101270.13;5032997;28;21072;-45
2022/08/17 08:40:26;;;;;;;39.90;36.00;;;;;;;25.68;72.38;101260.97;5035872;28;20431;-46
2022/08/17 08:43:07;;;;;;;35.53;31.90;;;;;;;25.95;72.17;101273.31;5034791;28;20474;-46
2022/08/17 08:45:42;;;;;;;35.87;32.27;;;;;;;25.54;74.96;101259.94;5035909;28;20431;-46
2022/08/17 08:48:26;;;;;;;37.77;31.03;;;;;;;25.99;75.82;101267.00;5035831;28;20792;-44
2022/08/17 08:51:26;;;;;;;34.97;31.27;;;;;;;26.03;70.99;101267.25;5035191;28;20455;-46
2022/08/17 08:54:02;;;;;;;32.67;29.40;;;;;;;25.54;73.82;101279.06;5035522;28;20523;-44
2022/08/17 08:56:37;;;;;;;34.87;31.47;;;;;;;25.82;74.78;101274.78;5035649;28;20475;-47
2022/08/17 08:59:17;;;;;;;35.30;31.93;;;;;;;25.90;73.67;101281.53;5035476;28;20431;-46
2022/08/17 09:01:55;;;;;;;33.20;29.97;;;;;;;25.69;72.20;101295.34;5034566;28;20464;-45
2022/08/17 09:04:38;;;;;;;34.93;31.47;;;;;;;25.70;73.86;101293.44;5035384;28;20821;-44
2022/08/17 09:07:38;;;;;;;35.07;31.57;;;;;;;25.88;72.60;101291.94;5035269;28;20952;-49
2022/08/17 09:10:14;;;;;;;32.23;29.23;;;;;;;26.18;73.31;101289.81;5035184;28;20431;-49
2022/08/17 09:12:52;;;;;;;28.20;25.47;;;;;;;26.43;71.84;101290.69;5034632;28;20451;-46
2022/08/17 09:15:24;;;;;;;26.63;24.27;;;;;;;26.70;70.61;101301.91;5059158;23;20481;-41
2022/08/17 09:18:00;;;;;;;29.10;26.20;;;;;;;26.94;69.20;101302.75;5015220;28;20500;-43
2022/08/17 09:20:55;;;;;;;26.33;23.83;;;;;;;26.98;68.70;101302.97;4996035;28;20436;-42
2022/08/17 09:23:32;;;;;;;28.47;25.97;;;;;;;26.99;67.31;101293.66;4995254;28;20460;-47
2022/08/17 09:26:06;;;;;;;24.20;21.90;;;;;;;27.12;68.26;101295.69;4995689;28;20453;-40
2022/08/17 09:28:36;;;;;;;25.30;23.20;;;;;;;27.14;67.80;101290.72;4995776;28;20430;-43
2022/08/17 09:31:09;;;;;;;25.83;23.33;;;;;;;27.20;67.14;101293.09;4995021;28;20429;-40
2022/08/17 09:33:43;;;;;;;27.30;24.97;;;;;;;27.13;65.46;101287.16;4995682;28;20429;-44
2022/08/17 09:36:18;;;;;;;27.53;25.10;;;;;;;27.07;65.75;101282.88;4995656;28;20807;-45
2022/08/17 09:38:56;;;;;;;25.73;23.33;;;;;;;27.10;66.63;101287.75;4995373;28;20815;-44
2022/08/17 09:41:31;;;;;;;27.83;25.23;;;;;;;26.75;66.65;101296.38;4994906;28;20461;-43
2022/08/17 09:44:05;;;;;;;27.67;25.00;;;;;;;26.43;67.33;101290.69;4995635;28;20425;-43
2022/08/17 09:46:55;;;;;;;28.23;25.63;;;;;;;26.22;68.35;101287.34;4995557;28;20457;-41
2022/08/17 09:49:30;;;;;;;28.10;25.30;;;;;;;26.38;68.55;101295.09;4994811;28;20434;-44
2022/08/17 09:52:07;;;;;;;26.83;24.27;;;;;;;26.23;68.77;101288.94;4994872;28;20469;-44
2022/08/17 09:54:39;;;;;;;29.03;26.53;;;;;;;26.67;65.67;101280.59;4995335;28;20447;-44
2022/08/17 09:57:21;;;;;;;25.37;23.17;;;;;;;27.32;67.10;101287.19;4995506;28;20823;-42
2022/08/17 10:00:15;;;;;;;25.90;23.80;;;;;;;27.66;62.36;101285.06;4995465;28;20429;-41
2022/08/17 10:03:03;;;;;;;26.97;24.50;;;;;;;27.66;61.81;101282.34;4994757;28;20465;-45
2022/08/17 10:05:37;;;;;;;29.50;26.97;;;;;;;28.06;60.28;101288.31;4995320;28;20464;-43
2022/08/17 10:08:16;;;;;;;25.60;23.20;;;;;;;28.02;58.42;101285.31;4994939;28;20441;-43
2022/08/17 10:10:58;;;;;;;25.10;22.83;;;;;;;27.95;60.55;101290.38;4995376;28;20433;-45
2022/08/17 10:13:35;;;;;;;23.93;22.13;;;;;;;28.07;59.83;101287.22;4994515;28;20437;-43
2022/08/17 10:16:11;;;;;;;23.23;21.23;;;;;;;27.89;59.58;101278.69;4994930;28;20465;-44
2022/08/17 10:18:51;;;;;;;25.83;23.33;;;;;;;27.91;60.10;101279.19;4994909;28;20464;-43
2022/08/17 10:26:59;;;;;;;24.90;22.40;;;;;;;27.64;57.28;101270.88;4994538;28;20859;-44
2022/08/17 10:29:33;;;;;;;22.93;20.83;;;;;;;27.72;59.58;101280.31;4994892;28;20418;-44
2022/08/17 10:32:25;;;;;;;24.97;22.53;;;;;;;27.63;59.41;101273.91;4993962;28;20473;-44
2022/08/17 10:35:18;;;;;;;26.53;24.23;;;;;;;27.98;59.46;101274.16;4994634;28;20488;-43
2022/08/17 10:37:59;;;;;;;26.73;23.60;;;;;;;28.38;58.30;101271.84;4994571;28;20478;-44
2022/08/17 10:40:36;;;;;;;24.47;22.37;;;;;;;28.39;56.94;101273.47;4994968;28;20433;-44
2022/08/17 10:43:19;;;;;;;22.50;20.70;;;;;;;28.53;58.20;101277.03;4994341;28;20468;-44
2022/08/17 10:45:52;;;;;;;24.33;22.07;;;;;;;28.53;56.77;101283.34;4994414;28;20732;-47
2022/08/17 10:48:41;;;;;;;22.20;20.10;;;;;;;28.69;57.19;101283.09;4994811;28;20434;-47
2022/08/17 10:51:11;;;;;;;23.50;21.50;;;;;;;28.78;56.52;101276.59;4994139;28;20788;-44
2022/08/17 10:53:57;;;;;;;25.07;22.90;;;;;;;28.64;56.30;101267.53;4994582;28;20529;-44
2022/08/17 10:56:43;;;;;;;22.50;20.30;;;;;;;28.51;55.32;101276.53;4994327;28;20484;-43
2022/08/17 10:59:54;;;;;;;21.00;19.40;;;;;;;28.41;56.11;101273.97;4994151;28;20857;-43
2022/08/17 11:02:26;;;;;;;22.27;20.30;;;;;;;28.50;57.14;101274.91;4993634;28;20469;-47
2022/08/17 11:05:08;;;;;;;22.63;20.63;;;;;;;28.55;56.19;101274.81;4994103;28;20915;-44
2022/08/17 11:07:51;;;;;;;23.07;21.20;;;;;;;28.41;57.12;101271.22;4994169;28;20433;-48
2022/08/17 11:10:44;;;;;;;20.53;18.20;;;;;;;28.68;57.11;101271.28;4994201;28;20472;-44
2022/08/17 11:13:30;;;;;;;20.60;18.80;;;;;;;28.78;56.30;101279.31;4993385;28;20472;-42
2022/08/17 11:16:17;;;;;;;19.60;17.80;;;;;;;28.95;56.35;101276.78;4993949;28;20461;-43
2022/08/17 11:19:08;;;;;;;18.97;17.40;;;;;;;28.93;56.70;101273.53;4993873;28;20477;-47
2022/08/17 11:22:05;;;;;;;20.43;18.67;;;;;;;29.14;54.63;101273.09;4993575;28;20832;-42
2022/08/17 11:24:35;;;;;;;19.20;17.60;;;;;;;29.33;56.18;101271.06;4979097;28;20434;-43
2022/08/17 11:27:23;;;;;;;20.60;19.00;;;;;;;29.19;55.97;101261.97;4993819;28;20808;-43
2022/08/17 11:29:54;;;;;;;21.77;19.67;;;;;;;29.18;55.77;101263.91;4993632;28;20452;-44
2022/08/17 11:32:41;;;;;;;23.77;21.40;;;;;;;29.38;54.67;101263.53;4993256;28;20468;-43
2022/08/17 11:35:32;;;;;;;19.10;17.70;;;;;;;29.56;54.08;101258.97;4993884;28;20433;-45
2022/08/17 11:38:12;;;;;;;22.63;20.30;;;;;;;29.19;55.10;101265.56;4993677;28;20481;-44
2022/08/17 11:41:02;;;;;;;20.87;19.17;;;;;;;29.12;56.28;101259.69;4993986;28;20433;-44
2022/08/17 11:43:55;;;;;;;25.63;19.80;;;;;;;29.18;56.18;101266.66;4993279;28;20448;-45
2022/08/17 11:52:38;;;;;;;24.60;22.50;;;;;;;29.02;55.27;101270.88;4992811;28;20581;-45
2022/08/17 11:55:08;;;;;;;20.47;18.73;;;;;;;28.49;56.47;101265.84;4993720;28;20433;-45
2022/08/17 11:58:00;;;;;;;19.83;18.03;;;;;;;28.67;56.16;101272.41;4993436;28;20469;-48
2022/08/17 12:00:50;;;;;;;17.03;15.63;;;;;;;28.59;53.78;101273.06;4993412;28;20483;-45
2022/08/17 12:03:22;;;;;;;15.87;14.47;;;;;;;28.68;54.92;101274.03;4992555;28;20461;-45
2022/08/17 12:05:52;;;;;;;16.10;14.70;;;;;;;28.70;54.90;101271.81;4993018;28;20963;-45
2022/08/17 12:08:22;;;;;;;15.73;14.10;;;;;;;28.80;53.52;101276.25;4992976;28;20437;-45
2022/08/17 12:10:59;;;;;;;13.77;12.67;;;;;;;28.80;52.74;101265.28;4992785;28;20426;-44